createdAt,value
2022-11-25T00:04:57.506Z,14.20
2022-11-25T00:10:00.919Z,15.30
2022-11-25T00:15:04.844Z,16.10
2022-11-25T00:20:08.870Z,20.10
2022-11-25T00:25:12.386Z,17.20
2022-11-25T00:30:15.902Z,14.80
2022-11-25T00:35:19.517Z,23.20
2022-11-25T00:40:22.931Z,19.00
2022-11-25T00:45:26.506Z,18.90
2022-11-25T00:50:29.962Z,12.00
2022-11-25T00:55:53.446Z,22.80
2022-11-25T01:01:02.285Z,22.40
2022-11-25T01:06:09.446Z,22.60
2022-11-25T01:11:15.562Z,25.90
2022-11-25T01:16:20.864Z,24.40
2022-11-25T01:21:26.928Z,23.60
2022-11-25T01:26:31.161Z,24.50
2022-11-25T01:31:36.873Z,24.50
2022-11-25T01:36:40.927Z,19.90
2022-11-25T01:41:45.057Z,25.90
2022-11-25T01:47:09.559Z,23.80
2022-11-25T01:52:18.608Z,24.20
2022-11-25T01:57:28.164Z,23.10
2022-11-25T02:02:32.444Z,25.10
2022-11-25T02:07:46.513Z,26.40
2022-11-25T02:12:50.720Z,24.60
2022-11-25T02:17:54.206Z,24.30
2022-11-25T02:23:16.462Z,21.20
2022-11-25T02:28:26.837Z,22.70
2022-11-25T02:33:30.354Z,22.70
2022-11-25T02:38:44.831Z,19.60
2022-11-25T02:43:48.781Z,13.90
2022-11-25T02:49:08.968Z,17.70
2022-11-25T02:54:15.998Z,14.50
2022-11-25T02:59:19.575Z,16.80
2022-11-25T03:04:22.985Z,16.50
2022-11-25T03:09:26.502Z,15.70
2022-11-25T03:14:30.120Z,17.70
2022-11-25T03:19:33.533Z,11.20
2022-11-25T03:24:37.136Z,16.70
2022-11-25T03:29:40.773Z,16.60
2022-11-25T03:34:44.283Z,16.10
2022-11-25T03:39:47.902Z,16.80
2022-11-25T03:44:51.356Z,19.10
2022-11-25T03:49:54.841Z,18.60
2022-11-25T03:54:58.355Z,15.80
2022-11-25T04:00:02.668Z,21.20
2022-11-25T04:05:06.609Z,21.10
2022-11-25T04:10:10.529Z,16.50
2022-11-25T04:15:18.245Z,16.00
2022-11-25T04:20:21.624Z,20.00
2022-11-25T04:25:25.075Z,17.60
2022-11-25T04:30:29.361Z,16.50
2022-11-25T04:35:32.825Z,16.20
2022-11-25T04:40:36.336Z,16.20
2022-11-25T04:45:58.972Z,17.30
2022-11-25T04:51:03.339Z,15.40
2022-11-25T04:56:07.466Z,14.70
2022-11-25T05:01:10.940Z,10.90
2022-11-25T05:06:14.599Z,14.10
2022-11-25T05:11:18.933Z,11.90
2022-11-25T05:16:22.406Z,11.10
2022-11-25T05:21:26.064Z,11.70
2022-11-25T05:26:29.482Z,11.40
2022-11-25T05:31:33.099Z,9.80
2022-11-25T05:36:37.231Z,12.00
2022-11-25T05:41:40.641Z,12.90
2022-11-25T05:46:47.431Z,10.80
2022-11-25T05:51:52.281Z,11.30
2022-11-25T05:56:55.694Z,9.90
2022-11-25T06:01:59.372Z,8.70
2022-11-25T06:07:03.338Z,12.20
2022-11-25T06:12:07.294Z,12.00
2022-11-25T06:17:10.674Z,13.40
2022-11-25T06:22:14.499Z,11.10
2022-11-25T06:27:18.221Z,13.10
2022-11-25T06:32:21.940Z,11.80
2022-11-25T06:37:25.456Z,10.60
2022-11-25T06:42:28.970Z,10.60
2022-11-25T06:47:32.489Z,8.20
2022-11-25T06:52:36.206Z,9.20
2022-11-25T06:57:39.724Z,6.90
2022-11-25T07:02:48.384Z,9.70
2022-11-25T07:07:52.711Z,9.60
2022-11-25T07:12:56.317Z,9.70
2022-11-25T07:17:59.826Z,10.40
2022-11-25T07:23:03.342Z,10.80
2022-11-25T07:28:06.857Z,11.60
2022-11-25T07:33:11.035Z,13.40
2022-11-25T07:38:14.505Z,13.10
2022-11-25T07:43:18.019Z,9.60
2022-11-25T07:48:21.539Z,14.70
2022-11-25T07:53:24.948Z,13.70
2022-11-25T07:58:28.462Z,12.10
2022-11-25T08:03:36.465Z,10.70
2022-11-25T08:08:41.639Z,9.80
2022-11-25T08:13:45.768Z,11.10
2022-11-25T08:18:50.209Z,12.00
2022-11-25T08:23:54.237Z,12.30
2022-11-25T08:28:58.878Z,12.80
2022-11-25T08:34:03.727Z,11.80
2022-11-25T08:39:28.996Z,11.30
2022-11-25T08:44:31.950Z,11.90
2022-11-25T08:49:40.872Z,12.60
2022-11-25T08:54:45.327Z,12.70
2022-11-25T08:59:48.741Z,13.10
2022-11-25T09:04:52.361Z,13.70
2022-11-25T09:09:55.977Z,10.20
2022-11-25T09:14:59.491Z,12.50
2022-11-25T09:20:05.472Z,12.00
2022-11-25T09:25:09.289Z,13.90
2022-11-25T09:30:13.628Z,14.50
2022-11-25T09:35:18.085Z,14.20
2022-11-25T09:40:36.731Z,16.90
2022-11-25T09:46:23.116Z,13.90
2022-11-25T09:51:38.960Z,14.70
2022-11-25T09:56:47.590Z,13.50
2022-11-25T10:02:05.399Z,12.60
2022-11-25T10:07:18.603Z,13.30
2022-11-25T10:12:28.552Z,13.20
2022-11-25T10:17:56.029Z,14.40
2022-11-25T10:23:05.401Z,17.50
2022-11-25T10:28:21.082Z,13.40
2022-11-25T10:33:53.475Z,10.90
2022-11-25T10:39:24.739Z,13.00
2022-11-25T10:44:30.731Z,14.30
2022-11-25T10:49:45.594Z,13.20
2022-11-25T10:55:24.379Z,13.80
2022-11-25T11:00:37.220Z,12.10
2022-11-25T11:05:49.609Z,15.50
2022-11-25T11:11:17.379Z,15.50
2022-11-25T11:16:26.710Z,15.00
2022-11-25T11:21:35.794Z,14.80
2022-11-25T11:26:39.295Z,12.90
2022-11-25T11:31:51.963Z,9.70
2022-11-25T11:37:22.986Z,12.70
2022-11-25T11:42:44.625Z,11.90
2022-11-25T11:47:51.212Z,11.00
2022-11-25T11:53:05.277Z,11.70
2022-11-25T11:58:50.501Z,12.30
2022-11-25T12:04:11.902Z,12.00
2022-11-25T12:09:20.704Z,12.60
2022-11-25T12:14:26.817Z,12.70
2022-11-25T12:19:52.247Z,14.50
2022-11-25T12:25:11.122Z,14.60
2022-11-25T12:30:19.863Z,13.20
2022-11-25T12:35:34.644Z,13.00
2022-11-25T12:40:47.173Z,13.60
2022-11-25T12:46:14.312Z,13.00
2022-11-25T12:51:36.181Z,13.60
2022-11-25T12:56:52.501Z,13.70
2022-11-25T13:02:15.899Z,13.70
2022-11-25T13:07:19.224Z,16.10
2022-11-25T13:12:54.982Z,15.50
2022-11-25T13:18:08.654Z,14.50
2022-11-25T13:23:13.359Z,17.50
2022-11-25T13:33:44.874Z,14.30
2022-11-25T13:38:51.360Z,14.60
2022-11-25T13:44:24.354Z,15.40
2022-11-25T13:49:30.432Z,14.70
2022-11-25T13:54:43.780Z,14.50
2022-11-25T13:59:54.311Z,14.00
2022-11-25T14:05:00.638Z,14.90
2022-11-25T14:10:13.573Z,14.50
2022-11-25T14:15:26.102Z,22.50
2022-11-25T14:20:38.735Z,19.80
2022-11-25T14:25:53.390Z,15.90
2022-11-25T14:31:11.809Z,15.60
2022-11-25T14:36:21.329Z,18.10
2022-11-25T14:41:31.397Z,18.30
2022-11-25T14:46:34.808Z,14.60
2022-11-25T14:51:39.155Z,14.80
2022-11-25T14:56:42.660Z,15.50
2022-11-25T15:01:54.990Z,15.20
2022-11-25T15:07:02.290Z,13.80
2022-11-25T15:12:13.590Z,14.80
2022-11-25T15:17:30.065Z,14.00
2022-11-25T15:22:33.927Z,14.50
2022-11-25T15:27:49.939Z,15.20
2022-11-25T15:32:55.392Z,15.70
2022-11-25T15:37:59.937Z,15.30
2022-11-25T15:43:06.447Z,18.50
2022-11-25T15:48:24.582Z,18.70
2022-11-25T15:53:33.245Z,17.90
2022-11-25T15:58:37.350Z,17.30
2022-11-25T16:03:40.758Z,17.30
2022-11-25T16:09:00.459Z,14.80
2022-11-25T16:14:29.174Z,17.90
2022-11-25T16:19:37.976Z,18.40
2022-11-25T16:24:51.206Z,17.80
2022-11-25T16:29:58.111Z,17.60
2022-11-25T16:35:15.447Z,16.70
2022-11-25T16:40:19.405Z,17.50
2022-11-25T16:50:28.586Z,19.70
2022-11-25T16:55:32.208Z,22.40
2022-11-25T17:00:36.026Z,21.10
2022-11-25T17:05:39.746Z,19.60
2022-11-25T17:10:44.797Z,20.00
2022-11-25T17:15:48.657Z,22.20
2022-11-25T17:20:52.135Z,21.20
2022-11-25T17:25:56.061Z,21.30
2022-11-25T17:30:59.884Z,19.50
2022-11-25T17:36:03.507Z,21.30
2022-11-25T17:41:16.145Z,24.50
2022-11-25T17:46:20.425Z,23.10
2022-11-25T17:51:23.981Z,21.20
2022-11-25T17:56:32.718Z,19.00
2022-11-25T18:01:36.426Z,20.20
2022-11-25T18:06:39.954Z,23.30
2022-11-25T18:11:47.003Z,25.30
2022-11-25T18:16:50.833Z,21.70
2022-11-25T18:22:00.639Z,20.40
2022-11-25T18:27:05.553Z,18.50
2022-11-25T18:32:11.111Z,20.90
2022-11-25T18:37:14.769Z,20.70
2022-11-25T18:42:26.153Z,22.50
2022-11-25T18:47:29.535Z,21.00
2022-11-25T18:52:32.996Z,24.90
2022-11-25T18:57:36.613Z,21.00
2022-11-25T19:02:40.155Z,19.50
2022-11-25T19:07:44.662Z,23.80
2022-11-25T19:12:51.568Z,21.90
2022-11-25T19:17:58.463Z,20.80
2022-11-25T19:23:16.315Z,19.60
2022-11-25T19:28:21.007Z,24.60
2022-11-25T19:33:35.325Z,22.50
2022-11-25T19:38:38.838Z,31.40
2022-11-25T19:43:42.353Z,29.10
2022-11-25T19:48:45.868Z,24.40
2022-11-25T19:53:49.693Z,30.50
2022-11-25T19:58:57.302Z,26.30
2022-11-25T20:04:02.638Z,23.60
2022-11-25T20:09:10.379Z,28.60
2022-11-25T20:14:13.712Z,25.80
2022-11-25T20:19:19.593Z,25.00
2022-11-25T20:24:24.227Z,26.10
2022-11-25T20:29:30.655Z,24.70
2022-11-25T20:34:41.696Z,23.40
2022-11-25T20:39:45.701Z,21.80
2022-11-25T20:44:57.199Z,23.50
2022-11-25T20:50:01.334Z,25.50
2022-11-25T20:55:19.290Z,33.80
2022-11-25T21:00:28.335Z,31.40
2022-11-25T21:05:32.465Z,25.70
2022-11-25T21:15:39.598Z,22.30
2022-11-25T21:20:43.929Z,22.00
2022-11-25T21:25:48.982Z,25.80
2022-11-25T21:30:52.327Z,25.20
2022-11-25T21:35:56.831Z,23.70
2022-11-25T21:41:00.349Z,23.70
2022-11-25T21:46:07.822Z,22.90
2022-11-25T21:51:14.138Z,22.80
2022-11-25T21:56:30.761Z,22.00
2022-11-25T22:01:34.515Z,23.30
2022-11-25T22:06:37.894Z,23.60
2022-11-25T22:11:47.702Z,25.10
2022-11-25T22:16:52.049Z,26.10
2022-11-25T22:21:56.724Z,20.60
2022-11-25T22:27:00.255Z,21.10
2022-11-25T22:32:07.111Z,21.30
2022-11-25T22:37:22.958Z,19.60
2022-11-25T22:42:29.951Z,21.40
2022-11-25T22:47:38.273Z,18.60
2022-11-25T22:52:41.587Z,21.40
2022-11-25T22:57:45.304Z,17.80
2022-11-25T23:02:50.561Z,20.50
2022-11-25T23:07:55.092Z,21.00
2022-11-25T23:18:04.936Z,21.50
2022-11-25T23:23:20.905Z,24.00
2022-11-25T23:28:25.242Z,23.00
2022-11-25T23:33:37.259Z,24.20
2022-11-25T23:38:51.623Z,24.40
2022-11-25T23:43:55.789Z,24.60
2022-11-25T23:49:03.006Z,20.60
2022-11-25T23:54:06.573Z,21.90
2022-11-25T23:59:15.214Z,20.60
